Time,TemperatureF,DewpointF,PressureIn,WindDirection,WindDirectionDegrees,WindSpeedMPH,WindSpeedGustMPH,Humidity,HourlyPrecipIn,Conditions,Clouds,dailyrainin,SoftwareType,DateUTC
2013-08-28 00:00:00,74.3,71.5,28.94,North,0,0.0,0.0,91,0.00,CLR,,0.00,WeatherDisplay:10.37,2013-08-28 05:00:00,
2013-08-28 00:05:00,74.3,71.5,28.94,North,0,0.0,0.0,91,0.00,CLR,,0.00,WeatherDisplay:10.37,2013-08-28 05:05:00,
2013-08-28 00:10:00,74.1,71.6,28.94,North,0,0.0,0.0,92,0.00,CLR,,0.00,WeatherDisplay:10.37,2013-08-28 05:10:00,
2013-08-28 00:15:00,73.9,71.5,28.94,North,0,0.0,0.0,92,0.00,CLR,,0.00,WeatherDisplay:10.37,2013-08-28 05:15:00,
2013-08-28 00:20:00,73.9,71.8,28.95,North,0,0.0,0.0,93,0.00,CLR,,0.00,WeatherDisplay:10.37,2013-08-28 05:20:00,
2013-08-28 00:25:00,73.8,71.6,28.95,North,0,0.0,0.0,93,0.00,CLR,,0.00,WeatherDisplay:10.37,2013-08-28 05:25:00,
2013-08-28 00:30:00,73.8,71.6,28.94,North,0,0.0,0.0,93,0.00,CLR,,0.00,WeatherDisplay:10.37,2013-08-28 05:30:00,
2013-08-28 00:35:00,73.6,71.7,28.94,North,0,0.0,0.0,94,0.00,CLR,,0.00,WeatherDisplay:10.37,2013-08-28 05:35:00,
2013-08-28 00:40:00,73.6,71.7,28.95,North,0,0.0,0.0,94,0.00,CLR,,0.00,WeatherDisplay:10.37,2013-08-28 05:40:00,
2013-08-28 00:45:00,73.6,71.7,28.95,North,0,0.0,0.0,94,0.00,CLR,,0.00,WeatherDisplay:10.37,2013-08-28 05:45:00,
2013-08-28 00:50:00,73.6,71.7,28.95,North,0,2.3,0.0,94,0.00,CLR,,0.00,WeatherDisplay:10.37,2013-08-28 05:50:00,
2013-08-28 00:55:00,73.6,71.7,28.95,North,0,0.0,0.0,94,0.00,CLR,,0.00,WeatherDisplay:10.37,2013-08-28 05:55:00,
2013-08-28 01:00:00,73.4,71.6,28.95,North,0,0.0,0.0,94,0.00,CLR,,0.00,WeatherDisplay:10.37,2013-08-28 06:00:00,
2013-08-28 01:05:00,73.4,71.6,28.95,North,0,0.0,0.0,94,0.00,CLR,,0.00,WeatherDisplay:10.37,2013-08-28 06:05:00,
2013-08-28 01:10:00,73.2,71.4,28.95,North,0,0.0,0.0,94,0.00,CLR,,0.00,WeatherDisplay:10.37,2013-08-28 06:10:00,
2013-08-28 01:15:00,73.0,71.5,28.95,North,0,0.0,0.0,95,0.00,CLR,,0.00,WeatherDisplay:10.37,2013-08-28 06:15:00,
2013-08-28 01:20:00,72.9,71.3,28.95,North,0,0.0,0.0,95,0.00,CLR,,0.00,WeatherDisplay:10.37,2013-08-28 06:20:00,
2013-08-28 01:25:00,72.9,71.3,28.95,North,0,0.0,0.0,95,0.00,CLR,,0.00,WeatherDisplay:10.37,2013-08-28 06:25:00,
2013-08-28 01:30:00,72.7,71.2,28.96,North,0,0.0,0.0,95,0.00,CLR,,0.00,WeatherDisplay:10.37,2013-08-28 06:30:00,
2013-08-28 01:35:00,72.5,71.3,28.95,North,0,0.0,0.0,96,0.00,CLR,,0.00,WeatherDisplay:10.37,2013-08-28 06:35:00,
2013-08-28 01:40:00,72.3,71.1,28.95,North,0,0.0,0.0,96,0.00,CLR,,0.00,WeatherDisplay:10.37,2013-08-28 06:40:00,
2013-08-28 01:45:00,72.3,71.1,28.95,North,0,0.0,0.0,96,0.00,CLR,,0.00,WeatherDisplay:10.37,2013-08-28 06:45:00,
2013-08-28 01:50:00,72.1,70.9,28.95,North,0,0.0,0.0,96,0.00,CLR,,0.00,WeatherDisplay:10.37,2013-08-28 06:50:00,
2013-08-28 01:55:00,72.1,71.2,28.96,North,0,0.0,0.0,97,0.00,CLR,,0.00,WeatherDisplay:10.37,2013-08-28 06:55:00,
2013-08-28 02:00:00,72.0,71.1,28.96,North,0,0.0,0.0,97,0.00,CLR,,0.00,WeatherDisplay:10.37,2013-08-28 07:00:00,
2013-08-28 02:05:00,72.0,71.1,28.95,North,0,0.0,0.0,97,0.00,CLR,,0.00,WeatherDisplay:10.37,2013-08-28 07:05:00,
2013-08-28 02:10:00,72.0,71.4,28.96,North,0,0.0,0.0,98,0.00,CLR,,0.00,WeatherDisplay:10.37,2013-08-28 07:10:00,
2013-08-28 02:15:00,71.8,71.2,28.95,North,0,0.0,0.0,98,0.00,CLR,,0.00,WeatherDisplay:10.37,2013-08-28 07:15:00,
2013-08-28 02:20:00,71.8,71.2,28.95,North,0,0.0,0.0,98,0.00,CLR,,0.00,WeatherDisplay:10.37,2013-08-28 07:20:00,
2013-08-28 02:25:00,71.8,71.5,28.95,North,0,0.0,0.0,99,0.00,CLR,,0.00,WeatherDisplay:10.37,2013-08-28 07:25:00,
2013-08-28 02:30:00,71.6,71.3,28.95,North,0,0.0,0.0,99,0.00,CLR,,0.00,WeatherDisplay:10.37,2013-08-28 07:30:00,
2013-08-28 02:35:00,71.6,71.3,28.95,North,0,0.0,0.0,99,0.00,CLR,,0.00,WeatherDisplay:10.37,2013-08-28 07:35:00,
2013-08-28 02:40:00,71.4,71.1,28.95,North,0,0.0,0.0,99,0.00,CLR,,0.00,WeatherDisplay:10.37,2013-08-28 07:40:00,
2013-08-28 02:45:00,71.4,71.1,28.94,North,0,0.0,0.0,99,0.00,CLR,,0.00,WeatherDisplay:10.37,2013-08-28 07:45:00,
2013-08-28 02:50:00,71.2,70.9,28.94,North,0,0.0,0.0,99,0.00,CLR,,0.00,WeatherDisplay:10.37,2013-08-28 07:50:00,
2013-08-28 02:55:00,71.2,70.9,28.94,North,0,0.0,0.0,99,0.00,CLR,,0.00,WeatherDisplay:10.37,2013-08-28 07:55:00,
2013-08-28 03:00:00,71.1,70.8,28.94,North,0,0.0,0.0,99,0.00,CLR,,0.00,WeatherDisplay:10.37,2013-08-28 08:00:00,
2013-08-28 03:05:00,71.1,70.8,28.95,North,0,0.0,0.0,99,0.00,CLR,,0.00,WeatherDisplay:10.37,2013-08-28 08:05:00,
2013-08-28 03:10:00,71.1,70.8,28.95,North,0,0.0,0.0,99,0.00,CLR,,0.00,WeatherDisplay:10.37,2013-08-28 08:10:00,
2013-08-28 03:15:00,70.9,70.6,28.95,North,0,0.0,0.0,99,0.00,CLR,,0.00,WeatherDisplay:10.37,2013-08-28 08:15:00,
2013-08-28 03:20:00,70.7,70.4,28.95,North,0,0.0,0.0,99,0.00,CLR,,0.00,WeatherDisplay:10.37,2013-08-28 08:20:00,
2013-08-28 03:25:00,70.7,70.4,28.96,North,0,2.3,0.0,99,0.00,CLR,,0.00,WeatherDisplay:10.37,2013-08-28 08:25:00,
2013-08-28 03:30:00,70.7,70.4,28.96,North,0,0.0,0.0,99,0.00,CLR,,0.00,WeatherDisplay:10.37,2013-08-28 08:30:00,
2013-08-28 03:35:00,70.7,70.4,28.96,North,0,0.0,0.0,99,0.00,CLR,,0.00,WeatherDisplay:10.37,2013-08-28 08:35:00,
2013-08-28 03:40:00,70.9,70.6,28.97,North,0,0.0,0.0,99,0.00,CLR,,0.00,WeatherDisplay:10.37,2013-08-28 08:40:00,
2013-08-28 03:45:00,70.9,70.6,28.96,North,0,0.0,0.0,99,0.00,CLR,,0.00,WeatherDisplay:10.37,2013-08-28 08:45:00,
2013-08-28 03:50:00,70.9,70.6,28.96,North,0,0.0,0.0,99,0.00,CLR,,0.00,WeatherDisplay:10.37,2013-08-28 08:50:00,
2013-08-28 03:55:00,70.7,70.4,28.96,North,0,0.0,0.0,99,0.00,CLR,,0.00,WeatherDisplay:10.37,2013-08-28 08:55:00,
2013-08-28 04:00:00,70.7,70.4,28.97,North,0,0.0,0.0,99,0.00,CLR,,0.00,WeatherDisplay:10.37,2013-08-28 09:00:00,
2013-08-28 04:05:00,70.7,70.4,28.97,North,0,0.0,0.0,99,0.00,CLR,,0.00,WeatherDisplay:10.37,2013-08-28 09:05:00,
2013-08-28 04:10:00,70.5,70.2,28.97,North,0,0.0,0.0,99,0.00,CLR,,0.00,WeatherDisplay:10.37,2013-08-28 09:10:00,
2013-08-28 04:15:00,70.5,70.2,28.96,North,0,0.0,0.0,99,0.00,CLR,,0.00,WeatherDisplay:10.37,2013-08-28 09:15:00,
2013-08-28 04:20:00,70.3,70.0,28.96,North,0,1.1,0.0,99,0.00,CLR,,0.00,WeatherDisplay:10.37,2013-08-28 09:20:00,
2013-08-28 04:25:00,70.2,69.9,28.96,North,0,0.0,0.0,99,0.00,CLR,,0.00,WeatherDisplay:10.37,2013-08-28 09:25:00,
2013-08-28 04:30:00,70.2,69.9,28.96,North,0,0.0,0.0,99,0.00,CLR,,0.00,WeatherDisplay:10.37,2013-08-28 09:30:00,
2013-08-28 04:33:00,70.2,69.9,28.96,North,0,0.0,0.0,99,0.00,CLR,,0.00,WeatherDisplay:10.37,2013-08-28 09:33:00,
2013-08-28 04:38:00,70.0,69.7,28.96,North,0,0.0,0.0,99,0.00,CLR,,0.00,WeatherDisplay:10.37,2013-08-28 09:38:00,
2013-08-28 04:43:00,70.0,69.7,28.97,North,0,0.0,0.0,99,0.00,CLR,,0.00,WeatherDisplay:10.37,2013-08-28 09:43:00,
2013-08-28 04:48:00,69.8,69.5,28.97,North,0,0.0,0.0,99,0.00,CLR,,0.00,WeatherDisplay:10.37,2013-08-28 09:48:00,
2013-08-28 04:53:00,69.6,69.3,28.97,North,0,0.0,0.0,99,0.00,CLR,,0.00,WeatherDisplay:10.37,2013-08-28 09:53:00,
2013-08-28 04:58:00,69.6,69.3,28.97,North,0,0.0,0.0,99,0.00,CLR,,0.00,WeatherDisplay:10.37,2013-08-28 09:58:00,
2013-08-28 05:03:00,69.4,69.1,28.97,North,0,0.0,0.0,99,0.00,CLR,,0.00,WeatherDisplay:10.37,2013-08-28 10:03:00,
2013-08-28 05:08:00,69.4,69.1,28.98,North,0,0.0,0.0,99,0.00,CLR,,0.00,WeatherDisplay:10.37,2013-08-28 10:08:00,
2013-08-28 05:13:00,69.4,69.1,28.98,North,0,0.0,0.0,99,0.00,CLR,,0.00,WeatherDisplay:10.37,2013-08-28 10:13:00,
2013-08-28 05:18:00,69.4,69.1,28.98,North,0,0.0,0.0,99,0.00,CLR,,0.00,WeatherDisplay:10.37,2013-08-28 10:18:00,
2013-08-28 05:23:00,69.6,69.3,28.98,North,0,0.0,0.0,99,0.00,CLR,,0.00,WeatherDisplay:10.37,2013-08-28 10:23:00,
2013-08-28 05:28:00,69.8,69.5,28.98,NE,45,0.0,0.0,99,0.00,CLR,,0.00,WeatherDisplay:10.37,2013-08-28 10:28:00,
2013-08-28 05:33:00,69.8,69.5,28.98,NE,45,0.0,0.0,99,0.00,CLR,,0.00,WeatherDisplay:10.37,2013-08-28 10:33:00,
2013-08-28 05:38:00,69.8,69.5,28.98,NE,45,0.0,0.0,99,0.00,CLR,,0.00,WeatherDisplay:10.37,2013-08-28 10:38:00,
2013-08-28 05:43:00,70.0,69.7,28.98,NE,45,0.0,0.0,99,0.00,CLR,,0.00,WeatherDisplay:10.37,2013-08-28 10:43:00,
2013-08-28 05:48:00,70.0,69.7,28.99,NE,45,0.0,0.0,99,0.00,CLR,,0.00,WeatherDisplay:10.37,2013-08-28 10:48:00,
2013-08-28 05:53:00,70.2,69.9,28.99,NE,45,0.0,0.0,99,0.00,CLR,,0.00,WeatherDisplay:10.37,2013-08-28 10:53:00,
2013-08-28 05:58:00,70.2,69.9,28.99,East,90,0.0,0.0,99,0.00,CLR,,0.00,WeatherDisplay:10.37,2013-08-28 10:58:00,
2013-08-28 06:03:00,70.2,69.9,28.99,SSW,202,0.0,0.0,99,0.00,CLR,,0.00,WeatherDisplay:10.37,2013-08-28 11:03:00,
2013-08-28 06:08:00,70.2,69.9,29.00,NE,45,0.0,0.0,99,0.00,CLR,,0.00,WeatherDisplay:10.37,2013-08-28 11:08:00,
2013-08-28 06:13:00,70.2,69.9,29.00,East,90,0.0,0.0,99,0.00,CLR,,0.00,WeatherDisplay:10.37,2013-08-28 11:13:00,
2013-08-28 06:18:00,70.0,69.7,29.00,East,90,0.0,0.0,99,0.00,CLR,,0.00,WeatherDisplay:10.37,2013-08-28 11:18:00,
2013-08-28 06:23:00,70.0,69.7,29.00,East,90,0.0,0.0,99,0.00,CLR,,0.00,WeatherDisplay:10.37,2013-08-28 11:23:00,
2013-08-28 06:28:00,70.0,69.7,29.00,East,90,0.0,0.7,99,0.00,CLR,,0.00,WeatherDisplay:10.37,2013-08-28 11:28:00,
2013-08-28 06:33:00,70.0,69.7,29.00,NE,45,0.0,0.0,99,0.00,CLR,,0.00,WeatherDisplay:10.37,2013-08-28 11:33:00,
2013-08-28 06:38:00,70.2,69.6,29.00,East,90,0.0,0.0,98,0.00,CLR,,0.00,WeatherDisplay:10.37,2013-08-28 11:38:00,
2013-08-28 06:43:00,70.2,69.6,29.01,East,90,3.5,3.5,98,0.00,CLR,,0.00,WeatherDisplay:10.37,2013-08-28 11:43:00,
2013-08-28 06:48:00,70.2,69.6,29.01,East,90,3.5,3.5,98,0.00,CLR,,0.00,WeatherDisplay:10.37,2013-08-28 11:48:00,
2013-08-28 06:53:00,70.2,69.6,29.01,East,90,3.5,3.5,98,0.00,CLR,,0.00,WeatherDisplay:10.37,2013-08-28 11:53:00,
2013-08-28 06:58:00,70.2,69.3,29.02,East,90,5.8,5.8,97,0.00,CLR,,0.00,WeatherDisplay:10.37,2013-08-28 11:58:00,
2013-08-28 07:03:00,70.2,69.3,29.01,East,90,3.5,3.5,97,0.00,CLR,,0.00,WeatherDisplay:10.37,2013-08-28 12:03:00,
2013-08-28 07:08:00,70.2,69.3,29.01,East,90,3.5,3.5,97,0.00,CLR,,0.00,WeatherDisplay:10.37,2013-08-28 12:08:00,
2013-08-28 07:13:00,70.2,69.3,29.02,East,90,5.8,5.8,97,0.00,CLR,,0.00,WeatherDisplay:10.37,2013-08-28 12:13:00,
2013-08-28 07:18:00,70.2,69.3,29.02,NE,45,4.6,4.6,97,0.00,CLR,,0.00,WeatherDisplay:10.37,2013-08-28 12:18:00,
2013-08-28 07:23:00,70.3,69.4,29.02,North,0,3.5,3.5,97,0.00,CLR,,0.00,WeatherDisplay:10.37,2013-08-28 12:23:00,
2013-08-28 07:28:00,70.3,69.4,29.02,NE,45,6.9,6.9,97,0.00,CLR,,0.00,WeatherDisplay:10.37,2013-08-28 12:28:00,
2013-08-28 07:33:00,70.5,69.6,29.02,NE,45,3.5,3.5,97,0.00,CLR,,0.00,WeatherDisplay:10.37,2013-08-28 12:33:00,
2013-08-28 07:38:00,70.7,69.5,29.02,North,0,6.9,6.9,96,0.00,CLR,,0.00,WeatherDisplay:10.37,2013-08-28 12:38:00,
2013-08-28 07:43:00,70.9,70.0,29.03,NE,45,5.8,5.8,97,0.00,CLR,,0.00,WeatherDisplay:10.37,2013-08-28 12:43:00,
2013-08-28 07:48:00,71.1,70.2,29.03,East,90,4.6,4.6,97,0.00,CLR,,0.00,WeatherDisplay:10.37,2013-08-28 12:48:00,
2013-08-28 07:53:00,71.2,70.3,29.03,East,90,4.5,4.5,97,0.00,CLR,,0.00,WeatherDisplay:10.37,2013-08-28 12:53:00,
2013-08-28 07:58:00,71.4,70.5,29.03,East,90,3.5,3.5,97,0.00,CLR,,0.00,WeatherDisplay:10.37,2013-08-28 12:58:00,
2013-08-28 08:03:00,71.4,70.5,29.03,NW,315,4.6,4.6,97,0.00,CLR,,0.00,WeatherDisplay:10.37,2013-08-28 13:03:00,
2013-08-28 08:08:00,71.4,70.8,29.04,NE,45,5.8,5.8,98,0.00,CLR,,0.00,WeatherDisplay:10.37,2013-08-28 13:08:00,
2013-08-28 08:13:00,71.6,71.0,29.03,NE,45,3.5,3.5,98,0.00,CLR,,0.00,WeatherDisplay:10.37,2013-08-28 13:13:00,
2013-08-28 08:18:00,72.0,71.4,29.04,North,0,5.8,5.8,98,0.00,CLR,,0.00,WeatherDisplay:10.37,2013-08-28 13:18:00,
2013-08-28 08:23:00,72.0,71.7,29.03,East,90,5.8,5.8,99,0.00,CLR,,0.00,WeatherDisplay:10.37,2013-08-28 13:23:00,
2013-08-28 08:28:00,72.3,72.0,29.03,NE,45,6.9,6.9,99,0.00,CLR,,0.00,WeatherDisplay:10.37,2013-08-28 13:28:00,
2013-08-28 08:33:00,73.9,73.6,29.03,NE,45,5.8,5.8,99,0.00,CLR,,0.00,WeatherDisplay:10.37,2013-08-28 13:33:00,
2013-08-28 08:38:00,73.8,72.2,29.03,East,90,5.8,5.8,95,0.00,CLR,,0.00,WeatherDisplay:10.37,2013-08-28 13:38:00,
2013-08-28 08:43:00,75.0,72.9,29.03,East,90,6.9,6.9,93,0.00,CLR,,0.00,WeatherDisplay:10.37,2013-08-28 13:43:00,
2013-08-28 08:48:00,75.7,72.6,29.03,SE,135,3.5,3.5,90,0.00,CLR,,0.00,WeatherDisplay:10.37,2013-08-28 13:48:00,
2013-08-28 08:53:00,76.1,72.3,29.03,East,90,5.8,5.8,88,0.00,CLR,,0.00,WeatherDisplay:10.37,2013-08-28 13:53:00,
2013-08-28 08:58:00,75.2,71.7,29.03,SE,135,5.8,5.8,89,0.00,CLR,,0.00,WeatherDisplay:10.37,2013-08-28 13:58:00,
2013-08-28 09:03:00,75.2,72.1,29.03,SE,135,2.3,2.3,90,0.00,CLR,,0.00,WeatherDisplay:10.37,2013-08-28 14:03:00,
2013-08-28 09:08:00,75.2,72.4,29.03,SE,135,5.8,5.8,91,0.00,CLR,,0.00,WeatherDisplay:10.37,2013-08-28 14:08:00,
2013-08-28 09:13:00,75.4,71.9,29.03,SE,135,5.8,5.8,89,0.00,CLR,,0.00,WeatherDisplay:10.37,2013-08-28 14:13:00,
2013-08-28 09:18:00,75.7,72.3,29.04,SE,135,6.0,6.0,89,0.00,CLR,,0.00,WeatherDisplay:10.37,2013-08-28 14:18:00,
2013-08-28 09:23:00,75.4,71.9,29.04,South,180,5.8,5.8,89,0.00,CLR,,0.00,WeatherDisplay:10.37,2013-08-28 14:23:00,
2013-08-28 09:28:00,74.8,72.4,29.04,South,180,5.8,5.8,92,0.00,CLR,,0.00,WeatherDisplay:10.37,2013-08-28 14:28:00,
2013-08-28 09:33:00,74.1,72.0,29.04,SE,135,8.1,8.1,93,0.00,CLR,,0.00,WeatherDisplay:10.37,2013-08-28 14:33:00,
2013-08-28 09:38:00,74.1,72.3,29.04,SW,225,4.6,4.6,94,0.00,CLR,,0.00,WeatherDisplay:10.37,2013-08-28 14:38:00,
2013-08-28 09:43:00,74.7,72.2,29.04,SE,135,5.8,5.8,92,0.00,CLR,,0.00,WeatherDisplay:10.37,2013-08-28 14:43:00,
2013-08-28 09:48:00,74.3,72.1,29.05,South,180,8.1,8.1,93,0.00,CLR,,0.00,WeatherDisplay:10.37,2013-08-28 14:48:00,
2013-08-28 09:53:00,74.3,72.5,29.05,South,180,5.8,5.8,94,0.00,CLR,,0.00,WeatherDisplay:10.37,2013-08-28 14:53:00,
2013-08-28 09:58:00,74.3,72.1,29.05,South,180,5.8,5.8,93,0.00,CLR,,0.00,WeatherDisplay:10.37,2013-08-28 14:58:00,
2013-08-28 10:03:00,74.7,72.2,29.05,SE,135,6.9,6.9,92,0.00,CLR,,0.00,WeatherDisplay:10.37,2013-08-28 15:03:00,
2013-08-28 10:08:00,75.0,72.5,29.05,SE,135,8.1,8.1,92,0.00,CLR,,0.00,WeatherDisplay:10.37,2013-08-28 15:08:00,
2013-08-28 10:13:00,75.2,72.7,29.05,South,180,6.9,6.9,92,0.00,CLR,,0.00,WeatherDisplay:10.37,2013-08-28 15:13:00,
2013-08-28 10:18:00,75.7,72.6,29.06,SE,135,5.8,5.8,90,0.00,CLR,,0.00,WeatherDisplay:10.37,2013-08-28 15:18:00,
2013-08-28 10:23:00,76.3,72.5,29.06,South,180,5.8,5.8,88,0.00,CLR,,0.00,WeatherDisplay:10.37,2013-08-28 15:23:00,
2013-08-28 10:28:00,76.8,72.3,29.06,South,180,4.6,4.6,86,0.00,CLR,,0.00,WeatherDisplay:10.37,2013-08-28 15:28:00,
2013-08-28 10:33:00,77.2,72.7,29.06,SSE,158,3.5,3.5,86,0.00,CLR,,0.00,WeatherDisplay:10.37,2013-08-28 15:33:00,
2013-08-28 10:38:00,76.8,72.3,29.06,SE,135,6.9,6.9,86,0.00,CLR,,0.00,WeatherDisplay:10.37,2013-08-28 15:38:00,
2013-08-28 10:43:00,76.5,72.3,29.06,South,180,8.1,8.1,87,0.00,CLR,,0.00,WeatherDisplay:10.37,2013-08-28 15:43:00,
2013-08-28 10:48:00,76.6,72.1,29.06,SSE,158,5.8,5.8,86,0.00,CLR,,0.00,WeatherDisplay:10.37,2013-08-28 15:48:00,
2013-08-28 10:53:00,77.4,72.1,29.06,South,180,3.5,0.0,84,0.00,CLR,,0.00,WeatherDisplay:10.37,2013-08-28 15:53:00,
2013-08-28 10:58:00,77.0,72.1,29.06,South,180,9.2,9.2,85,0.00,CLR,,0.00,WeatherDisplay:10.37,2013-08-28 15:58:00,
2013-08-28 11:03:00,77.4,72.5,29.06,SE,135,5.8,5.8,85,0.00,CLR,,0.00,WeatherDisplay:10.37,2013-08-28 16:03:00,
2013-08-28 11:08:00,77.7,72.1,29.06,SE,135,8.1,8.1,83,0.00,CLR,,0.00,WeatherDisplay:10.37,2013-08-28 16:08:00,
2013-08-28 11:13:00,78.1,71.8,29.07,South,180,8.1,8.1,81,0.00,CLR,,0.00,WeatherDisplay:10.37,2013-08-28 16:13:00,
2013-08-28 11:18:00,79.2,71.7,29.06,South,180,5.8,5.8,78,0.00,CLR,,0.00,WeatherDisplay:10.37,2013-08-28 16:18:00,
2013-08-28 11:23:00,78.8,71.4,29.06,South,180,6.9,6.9,78,0.00,CLR,,0.00,WeatherDisplay:10.37,2013-08-28 16:23:00,
2013-08-28 11:28:00,79.2,71.7,29.06,South,180,8.1,8.1,78,0.00,CLR,,0.00,WeatherDisplay:10.37,2013-08-28 16:28:00,
2013-08-28 11:33:00,79.7,71.8,29.06,South,180,5.8,5.8,77,0.00,CLR,,0.00,WeatherDisplay:10.37,2013-08-28 16:33:00,
2013-08-28 11:38:00,79.7,71.8,29.06,South,180,4.6,4.6,77,0.00,CLR,,0.00,WeatherDisplay:10.37,2013-08-28 16:38:00,
2013-08-28 11:43:00,81.7,72.6,29.07,SW,225,3.5,3.5,74,0.00,CLR,,0.00,WeatherDisplay:10.37,2013-08-28 16:43:00,
2013-08-28 11:48:00,83.3,72.5,29.06,SE,135,3.5,3.5,70,0.00,CLR,,0.00,WeatherDisplay:10.37,2013-08-28 16:48:00,
2013-08-28 11:53:00,84.2,71.2,29.06,SE,135,3.5,0.0,65,0.00,CLR,,0.00,WeatherDisplay:10.37,2013-08-28 16:53:00,
2013-08-28 11:58:00,85.3,71.7,29.06,South,180,3.5,3.5,64,0.00,CLR,,0.00,WeatherDisplay:10.37,2013-08-28 16:58:00,
2013-08-28 12:03:00,85.6,72.1,29.06,South,180,2.3,0.0,64,0.00,CLR,,0.00,WeatherDisplay:10.37,2013-08-28 17:03:00,
2013-08-28 12:08:00,86.2,72.1,29.06,West,270,3.5,3.5,63,0.00,CLR,,0.00,WeatherDisplay:10.37,2013-08-28 17:08:00,
2013-08-28 12:13:00,87.1,71.5,29.06,South,180,3.5,0.0,60,0.00,CLR,,0.00,WeatherDisplay:10.37,2013-08-28 17:13:00,
2013-08-28 12:18:00,85.3,71.7,29.06,South,180,4.6,0.0,64,0.00,CLR,,0.00,WeatherDisplay:10.37,2013-08-28 17:18:00,
2013-08-28 12:23:00,84.4,71.8,29.06,SW,225,3.5,3.5,66,0.00,CLR,,0.00,WeatherDisplay:10.37,2013-08-28 17:23:00,
2013-08-28 12:28:00,86.0,71.5,29.06,SE,135,3.1,3.1,62,0.00,CLR,,0.00,WeatherDisplay:10.37,2013-08-28 17:28:00,
2013-08-28 12:33:00,86.5,71.5,29.06,South,180,2.3,0.0,61,0.00,CLR,,0.00,WeatherDisplay:10.37,2013-08-28 17:33:00,
2013-08-28 12:38:00,86.9,71.8,29.06,SE,135,3.5,3.5,61,0.00,CLR,,0.00,WeatherDisplay:10.37,2013-08-28 17:38:00,
2013-08-28 12:43:00,86.7,71.7,29.06,NW,315,3.5,0.0,61,0.00,CLR,,0.00,WeatherDisplay:10.37,2013-08-28 17:43:00,
2013-08-28 12:48:00,87.1,71.5,29.06,South,180,3.5,0.0,60,0.00,CLR,,0.00,WeatherDisplay:10.37,2013-08-28 17:48:00,
2013-08-28 12:53:00,87.3,71.7,29.06,South,180,3.5,0.0,60,0.00,CLR,,0.00,WeatherDisplay:10.37,2013-08-28 17:53:00,
2013-08-28 12:58:00,86.5,71.5,29.06,South,180,4.6,0.0,61,0.00,CLR,,0.00,WeatherDisplay:10.37,2013-08-28 17:58:00,
2013-08-28 13:03:00,87.6,71.0,29.06,NW,315,3.5,0.0,58,0.00,CLR,,0.00,WeatherDisplay:10.37,2013-08-28 18:03:00,
2013-08-28 13:08:00,87.4,71.3,29.06,South,180,5.8,5.8,59,0.00,CLR,,0.00,WeatherDisplay:10.37,2013-08-28 18:08:00,
2013-08-28 13:13:00,87.4,70.8,29.06,SE,135,3.5,0.0,58,0.00,CLR,,0.00,WeatherDisplay:10.37,2013-08-28 18:13:00,
2013-08-28 13:18:00,88.7,71.0,29.06,South,180,3.5,0.0,56,0.00,CLR,,0.00,WeatherDisplay:10.37,2013-08-28 18:18:00,
2013-08-28 13:23:00,89.1,70.8,29.06,South,180,3.5,3.5,55,0.00,CLR,,0.00,WeatherDisplay:10.37,2013-08-28 18:23:00,
2013-08-28 13:28:00,89.4,70.6,29.06,South,180,3.5,0.0,54,0.00,CLR,,0.00,WeatherDisplay:10.37,2013-08-28 18:28:00,
2013-08-28 13:33:00,89.1,71.3,29.06,South,180,3.5,0.0,56,0.00,CLR,,0.00,WeatherDisplay:10.37,2013-08-28 18:33:00,
2013-08-28 13:38:00,88.0,71.3,29.06,South,180,4.6,4.6,58,0.00,CLR,,0.00,WeatherDisplay:10.37,2013-08-28 18:38:00,
2013-08-28 13:43:00,88.0,71.3,29.06,SE,135,4.6,4.6,58,0.00,CLR,,0.00,WeatherDisplay:10.37,2013-08-28 18:43:00,
2013-08-28 13:48:00,87.8,71.2,29.05,South,180,5.8,5.8,58,0.00,CLR,,0.00,WeatherDisplay:10.37,2013-08-28 18:48:00,
2013-08-28 13:53:00,88.0,71.9,29.05,SW,225,3.5,0.0,59,0.00,CLR,,0.00,WeatherDisplay:10.37,2013-08-28 18:53:00,
2013-08-28 13:58:00,88.3,71.2,29.05,South,180,5.8,5.8,57,0.00,CLR,,0.00,WeatherDisplay:10.37,2013-08-28 18:58:00,
2013-08-28 14:03:00,88.9,71.2,29.05,SE,135,4.6,4.6,56,0.00,CLR,,0.00,WeatherDisplay:10.37,2013-08-28 19:03:00,
2013-08-28 14:08:00,89.8,70.4,29.04,South,180,3.8,3.8,53,0.00,CLR,,0.00,WeatherDisplay:10.37,2013-08-28 19:08:00,
2013-08-28 14:13:00,90.1,70.7,29.05,North,0,2.3,2.3,53,0.00,CLR,,0.00,WeatherDisplay:10.37,2013-08-28 19:13:00,
2013-08-28 14:18:00,91.2,70.6,29.04,SW,225,3.5,3.5,51,0.00,CLR,,0.00,WeatherDisplay:10.37,2013-08-28 19:18:00,
2013-08-28 14:23:00,89.8,70.9,29.05,South,180,5.8,5.8,54,0.00,CLR,,0.00,WeatherDisplay:10.37,2013-08-28 19:23:00,
2013-08-28 14:28:00,90.0,70.5,29.05,SW,225,4.6,4.6,53,0.00,CLR,,0.00,WeatherDisplay:10.37,2013-08-28 19:28:00,
2013-08-28 14:33:00,91.2,71.1,29.05,South,180,3.5,3.5,52,0.00,CLR,,0.00,WeatherDisplay:10.37,2013-08-28 19:33:00,
2013-08-28 14:38:00,92.7,70.7,29.05,West,270,2.3,2.3,49,0.00,CLR,,0.00,WeatherDisplay:10.37,2013-08-28 19:38:00,
2013-08-28 14:43:00,93.0,71.0,29.05,NW,315,3.5,0.0,49,0.00,CLR,,0.00,WeatherDisplay:10.37,2013-08-28 19:43:00,
2013-08-28 14:48:00,92.8,70.3,29.05,NE,45,4.6,4.6,48,0.00,CLR,,0.00,WeatherDisplay:10.37,2013-08-28 19:48:00,
2013-08-28 14:53:00,93.0,70.4,29.05,NE,45,3.5,3.5,48,0.00,CLR,,0.00,WeatherDisplay:10.37,2013-08-28 19:53:00,
2013-08-28 14:58:00,94.3,71.6,29.06,SW,225,3.5,0.0,48,0.00,CLR,,0.00,WeatherDisplay:10.37,2013-08-28 19:58:00,
2013-08-28 15:03:00,94.5,71.1,29.05,SW,225,2.3,0.0,47,0.00,CLR,,0.00,WeatherDisplay:10.37,2013-08-28 20:03:00,
2013-08-28 15:08:00,95.0,71.6,29.05,North,0,2.3,0.0,47,0.00,CLR,,0.00,WeatherDisplay:10.37,2013-08-28 20:08:00,
2013-08-28 15:13:00,94.5,70.5,29.05,South,180,2.3,2.3,46,0.00,CLR,,0.00,WeatherDisplay:10.37,2013-08-28 20:13:00,
2013-08-28 15:18:00,94.6,70.6,29.04,South,180,2.3,2.3,46,0.00,CLR,,0.00,WeatherDisplay:10.37,2013-08-28 20:18:00,
2013-08-28 15:23:00,93.7,71.1,29.04,SE,135,3.8,3.8,48,0.00,CLR,,0.00,WeatherDisplay:10.37,2013-08-28 20:23:00,
2013-08-28 15:28:00,92.5,72.3,29.04,SE,135,3.5,3.5,52,0.00,CLR,,0.00,WeatherDisplay:10.37,2013-08-28 20:28:00,
2013-08-28 15:33:00,91.4,70.7,29.04,SE,135,3.5,3.5,51,0.00,CLR,,0.00,WeatherDisplay:10.37,2013-08-28 20:33:00,
2013-08-28 15:38:00,90.9,70.8,29.03,South,180,3.5,3.5,52,0.00,CLR,,0.00,WeatherDisplay:10.37,2013-08-28 20:38:00,
2013-08-28 15:43:00,90.7,71.2,29.03,SSE,158,3.5,3.5,53,0.00,CLR,,0.00,WeatherDisplay:10.37,2013-08-28 20:43:00,
2013-08-28 15:48:00,91.0,71.0,29.03,South,180,3.5,3.5,52,0.00,CLR,,0.00,WeatherDisplay:10.37,2013-08-28 20:48:00,
2013-08-28 15:53:00,91.0,71.0,29.03,South,180,4.6,4.6,52,0.00,CLR,,0.00,WeatherDisplay:10.37,2013-08-28 20:53:00,
2013-08-28 15:58:00,90.0,70.5,29.04,SW,225,5.8,5.8,53,0.00,CLR,,0.00,WeatherDisplay:10.37,2013-08-28 20:58:00,
2013-08-28 16:03:00,89.2,71.0,29.05,SW,225,3.5,3.5,55,0.00,CLR,,0.00,WeatherDisplay:10.37,2013-08-28 21:03:00,
2013-08-28 16:08:00,90.0,71.1,29.05,SW,225,3.5,3.5,54,0.00,CLR,,0.00,WeatherDisplay:10.37,2013-08-28 21:08:00,
2013-08-28 16:13:00,90.5,70.5,29.05,SW,225,1.6,1.6,52,0.00,CLR,,0.00,WeatherDisplay:10.37,2013-08-28 21:13:00,
2013-08-28 16:18:00,91.0,70.4,29.05,SW,225,3.5,3.5,51,0.00,CLR,,0.00,WeatherDisplay:10.37,2013-08-28 21:18:00,
2013-08-28 16:23:00,91.4,70.1,29.05,North,0,1.1,0.0,50,0.00,CLR,,0.00,WeatherDisplay:10.37,2013-08-28 21:23:00,
2013-08-28 16:28:00,92.1,69.6,29.05,East,90,2.3,2.3,48,0.00,CLR,,0.00,WeatherDisplay:10.37,2013-08-28 21:28:00,
2013-08-28 16:33:00,92.7,69.5,29.05,NE,45,2.3,2.3,47,0.00,CLR,,0.00,WeatherDisplay:10.37,2013-08-28 21:33:00,
2013-08-28 16:38:00,93.2,70.0,29.05,NE,45,3.5,3.5,47,0.00,CLR,,0.00,WeatherDisplay:10.37,2013-08-28 21:38:00,
2013-08-28 16:43:00,92.8,70.9,29.05,South,180,3.5,3.5,49,0.00,CLR,,0.00,WeatherDisplay:10.37,2013-08-28 21:43:00,
2013-08-28 16:48:00,92.3,71.0,29.05,South,180,3.5,3.5,50,0.00,CLR,,0.00,WeatherDisplay:10.37,2013-08-28 21:48:00,
2013-08-28 16:53:00,91.9,70.6,29.04,SW,225,2.3,2.3,50,0.00,CLR,,0.00,WeatherDisplay:10.37,2013-08-28 21:53:00,
2013-08-28 16:58:00,91.2,70.6,29.04,SE,135,2.3,2.3,51,0.00,CLR,,0.00,WeatherDisplay:10.37,2013-08-28 21:58:00,
2013-08-28 17:03:00,90.1,70.1,29.04,SE,135,2.3,2.3,52,0.00,CLR,,0.00,WeatherDisplay:10.37,2013-08-28 22:03:00,
2013-08-28 17:08:00,89.2,71.0,29.04,North,0,3.5,3.5,55,0.00,CLR,,0.00,WeatherDisplay:10.37,2013-08-28 22:08:00,
2013-08-28 17:13:00,89.2,69.9,29.04,East,90,3.5,3.5,53,0.00,CLR,,0.00,WeatherDisplay:10.37,2013-08-28 22:13:00,
2013-08-28 17:18:00,88.7,69.9,29.04,South,180,3.5,3.5,54,0.00,CLR,,0.00,WeatherDisplay:10.37,2013-08-28 22:18:00,
2013-08-28 17:23:00,88.5,70.3,29.04,NE,45,3.5,3.5,55,0.00,CLR,,0.00,WeatherDisplay:10.37,2013-08-28 22:23:00,
2013-08-28 17:28:00,88.5,70.8,29.04,East,90,3.5,3.5,56,0.00,CLR,,0.00,WeatherDisplay:10.37,2013-08-28 22:28:00,
2013-08-28 17:33:00,89.1,70.8,29.04,NE,45,2.3,2.3,55,0.00,CLR,,0.00,WeatherDisplay:10.37,2013-08-28 22:33:00,
2013-08-28 17:38:00,89.8,71.5,29.05,East,90,1.1,0.0,55,0.00,CLR,,0.00,WeatherDisplay:10.37,2013-08-28 22:38:00,
2013-08-28 17:43:00,90.5,71.6,29.04,East,90,1.1,1.1,54,0.00,CLR,,0.00,WeatherDisplay:10.37,2013-08-28 22:43:00,
2013-08-28 17:48:00,90.7,71.2,29.04,SW,225,2.3,0.0,53,0.00,CLR,,0.00,WeatherDisplay:10.37,2013-08-28 22:48:00,
2013-08-28 17:53:00,90.0,70.0,29.04,NW,315,2.3,2.3,52,0.00,CLR,,0.00,WeatherDisplay:10.37,2013-08-28 22:53:00,
2013-08-28 17:58:00,90.1,71.2,29.04,NW,315,2.3,2.3,54,0.00,CLR,,0.00,WeatherDisplay:10.37,2013-08-28 22:58:00,
2013-08-28 18:03:00,90.0,71.6,29.04,NW,315,1.1,0.0,55,0.00,CLR,,0.00,WeatherDisplay:10.37,2013-08-28 23:03:00,
2013-08-28 18:08:00,90.3,72.0,29.04,ESE,112,1.1,1.1,55,0.00,CLR,,0.00,WeatherDisplay:10.37,2013-08-28 23:08:00,
2013-08-28 18:13:00,90.1,71.2,29.04,NW,315,2.3,0.0,54,0.00,CLR,,0.00,WeatherDisplay:10.37,2013-08-28 23:13:00,
2013-08-28 18:18:00,90.0,71.6,29.04,North,0,2.3,2.3,55,0.00,CLR,,0.00,WeatherDisplay:10.37,2013-08-28 23:18:00,
2013-08-28 18:23:00,89.8,72.0,29.04,North,0,1.1,1.1,56,0.00,CLR,,0.00,WeatherDisplay:10.37,2013-08-28 23:23:00,
2013-08-28 18:28:00,89.2,72.0,29.05,North,0,1.1,1.1,57,0.00,CLR,,0.00,WeatherDisplay:10.37,2013-08-28 23:28:00,
2013-08-28 18:33:00,88.9,72.2,29.04,West,270,1.1,0.0,58,0.00,CLR,,0.00,WeatherDisplay:10.37,2013-08-28 23:33:00,
2013-08-28 18:38:00,88.9,71.7,29.05,North,0,1.1,1.1,57,0.00,CLR,,0.00,WeatherDisplay:10.37,2013-08-28 23:38:00,
2013-08-28 18:43:00,88.2,72.5,29.05,SW,225,1.6,0.0,60,0.00,CLR,,0.00,WeatherDisplay:10.37,2013-08-28 23:43:00,
2013-08-28 18:48:00,88.2,72.5,29.05,East,90,1.1,0.0,60,0.00,CLR,,0.00,WeatherDisplay:10.37,2013-08-28 23:48:00,
2013-08-28 18:53:00,88.0,72.4,29.04,SW,225,3.5,3.5,60,0.00,CLR,,0.00,WeatherDisplay:10.37,2013-08-28 23:53:00,
2013-08-28 18:58:00,87.8,72.2,29.04,South,180,3.5,3.5,60,0.00,CLR,,0.00,WeatherDisplay:10.37,2013-08-28 23:58:00,
2013-08-28 19:03:00,87.6,72.0,29.04,North,0,2.3,2.3,60,0.00,CLR,,0.00,WeatherDisplay:10.37,2013-08-29 00:03:00,
2013-08-28 19:08:00,87.4,71.8,29.04,South,180,3.5,3.5,60,0.00,CLR,,0.00,WeatherDisplay:10.37,2013-08-29 00:08:00,
2013-08-28 19:13:00,87.3,72.2,29.04,SE,135,3.5,3.5,61,0.00,CLR,,0.00,WeatherDisplay:10.37,2013-08-29 00:13:00,
2013-08-28 19:18:00,87.1,72.0,29.04,East,90,2.3,2.3,61,0.00,CLR,,0.00,WeatherDisplay:10.37,2013-08-29 00:18:00,
2013-08-28 19:23:00,86.5,71.5,29.04,East,90,2.3,2.3,61,0.00,CLR,,0.00,WeatherDisplay:10.37,2013-08-29 00:23:00,
2013-08-28 19:28:00,86.2,71.6,29.04,North,0,1.1,1.1,62,0.00,CLR,,0.00,WeatherDisplay:10.37,2013-08-29 00:28:00,
2013-08-28 19:33:00,86.0,71.9,29.04,East,90,1.1,1.1,63,0.00,CLR,,0.00,WeatherDisplay:10.37,2013-08-29 00:33:00,
2013-08-28 19:38:00,84.9,71.4,29.04,SE,135,3.5,3.5,64,0.00,CLR,,0.00,WeatherDisplay:10.37,2013-08-29 00:38:00,
2013-08-28 19:43:00,84.7,72.1,29.05,NE,45,1.1,1.1,66,0.00,CLR,,0.00,WeatherDisplay:10.37,2013-08-29 00:43:00,
2013-08-28 19:48:00,84.9,72.7,29.05,NE,45,1.1,1.1,67,0.00,CLR,,0.00,WeatherDisplay:10.37,2013-08-29 00:48:00,
2013-08-28 19:53:00,84.2,72.5,29.04,NE,45,2.3,2.3,68,0.00,CLR,,0.00,WeatherDisplay:10.37,2013-08-29 00:53:00,
2013-08-28 19:58:00,83.7,72.0,29.04,ESE,112,5.4,5.4,68,0.00,CLR,,0.00,WeatherDisplay:10.37,2013-08-29 00:58:00,
2013-08-28 20:03:00,83.5,71.4,29.03,South,180,4.6,4.6,67,0.00,CLR,,0.00,WeatherDisplay:10.37,2013-08-29 01:03:00,
2013-08-28 20:08:00,83.3,71.6,29.03,South,180,4.6,4.6,68,0.00,CLR,,0.00,WeatherDisplay:10.37,2013-08-29 01:08:00,
2013-08-28 20:13:00,82.9,72.6,29.03,South,180,5.8,5.8,71,0.00,CLR,,0.00,WeatherDisplay:10.37,2013-08-29 01:13:00,
2013-08-28 20:18:00,82.8,73.2,29.01,East,90,6.9,6.9,73,0.00,CLR,,0.00,WeatherDisplay:10.37,2013-08-29 01:18:00,
2013-08-28 20:23:00,82.4,72.5,29.02,South,180,5.8,5.8,72,0.00,CLR,,0.00,WeatherDisplay:10.37,2013-08-29 01:23:00,
2013-08-28 20:28:00,82.4,71.6,29.03,South,180,5.8,5.8,70,0.00,CLR,,0.00,WeatherDisplay:10.37,2013-08-29 01:28:00,
2013-08-28 20:33:00,82.2,71.9,29.03,SE,135,5.8,5.8,71,0.00,CLR,,0.00,WeatherDisplay:10.37,2013-08-29 01:33:00,
2013-08-28 20:38:00,81.7,71.4,29.03,South,180,5.8,6.9,71,0.00,CLR,,0.00,WeatherDisplay:10.37,2013-08-29 01:38:00,
2013-08-28 20:43:00,81.7,70.5,29.04,South,180,8.1,8.1,69,0.00,CLR,,0.00,WeatherDisplay:10.37,2013-08-29 01:43:00,
2013-08-28 20:48:00,82.0,70.4,29.04,NE,45,4.6,4.6,68,0.00,CLR,,0.00,WeatherDisplay:10.37,2013-08-29 01:48:00,
2013-08-28 20:53:00,82.8,69.8,29.04,NE,45,3.5,3.5,65,0.00,CLR,,0.00,WeatherDisplay:10.37,2013-08-29 01:53:00,
2013-08-28 20:58:00,82.8,69.8,29.04,East,90,2.3,2.3,65,0.00,CLR,,0.00,WeatherDisplay:10.37,2013-08-29 01:58:00,
2013-08-28 21:03:00,82.9,69.5,29.04,SE,135,3.5,3.5,64,0.00,CLR,,0.00,WeatherDisplay:10.37,2013-08-29 02:03:00,
2013-08-28 21:08:00,82.9,69.0,29.04,East,90,2.3,2.3,63,0.00,CLR,,0.00,WeatherDisplay:10.37,2013-08-29 02:08:00,
2013-08-28 21:13:00,83.3,68.9,29.05,SW,225,2.3,2.3,62,0.00,CLR,,0.00,WeatherDisplay:10.37,2013-08-29 02:13:00,
2013-08-28 21:18:00,83.5,69.1,29.05,SW,225,3.5,3.5,62,0.00,CLR,,0.00,WeatherDisplay:10.37,2013-08-29 02:18:00,
2013-08-28 21:23:00,83.7,68.8,29.04,SW,225,3.5,3.5,61,0.00,CLR,,0.00,WeatherDisplay:10.37,2013-08-29 02:23:00,
2013-08-28 21:28:00,83.7,70.2,29.04,SW,225,3.5,3.5,64,0.00,CLR,,0.00,WeatherDisplay:10.37,2013-08-29 02:28:00,
2013-08-28 21:33:00,82.4,70.8,29.04,SE,135,5.8,5.8,68,0.00,CLR,,0.00,WeatherDisplay:10.37,2013-08-29 02:33:00,
2013-08-28 21:38:00,81.3,71.0,29.04,SSE,158,8.1,8.1,71,0.00,CLR,,0.00,WeatherDisplay:10.37,2013-08-29 02:38:00,
2013-08-28 21:43:00,80.8,71.3,29.05,South,180,10.4,10.4,73,0.00,CLR,,0.00,WeatherDisplay:10.37,2013-08-29 02:43:00,
2013-08-28 21:48:00,80.4,70.6,29.04,South,180,11.5,11.5,72,0.00,CLR,,0.00,WeatherDisplay:10.37,2013-08-29 02:48:00,
2013-08-28 21:53:00,80.1,70.6,29.04,South,180,11.5,11.5,73,0.00,CLR,,0.00,WeatherDisplay:10.37,2013-08-29 02:53:00,
2013-08-28 21:58:00,80.1,71.0,29.04,South,180,11.5,11.5,74,0.00,CLR,,0.00,WeatherDisplay:10.37,2013-08-29 02:58:00,
2013-08-28 22:03:00,79.9,70.8,29.06,South,180,10.4,10.4,74,0.00,CLR,,0.00,WeatherDisplay:10.37,2013-08-29 03:03:00,
2013-08-28 22:08:00,79.9,71.2,29.06,South,180,8.1,8.1,75,0.00,CLR,,0.00,WeatherDisplay:10.37,2013-08-29 03:08:00,
2013-08-28 22:13:00,79.9,71.6,29.05,South,180,8.1,8.1,76,0.00,CLR,,0.00,WeatherDisplay:10.37,2013-08-29 03:13:00,
2013-08-28 22:18:00,79.9,71.2,29.05,SE,135,8.1,8.1,75,0.00,CLR,,0.00,WeatherDisplay:10.37,2013-08-29 03:18:00,
2013-08-28 22:23:00,79.7,70.7,29.06,SE,135,4.6,4.6,74,0.00,CLR,,0.00,WeatherDisplay:10.37,2013-08-29 03:23:00,
2013-08-28 22:28:00,79.7,70.3,29.06,SE,135,2.3,0.0,73,0.00,CLR,,0.00,WeatherDisplay:10.37,2013-08-29 03:28:00,
2013-08-28 22:33:00,79.7,70.7,29.06,South,180,3.5,3.5,74,0.00,CLR,,0.00,WeatherDisplay:10.37,2013-08-29 03:33:00,
2013-08-28 22:39:00,79.5,70.9,29.07,SE,135,5.8,5.8,75,0.00,CLR,,0.00,WeatherDisplay:10.37,2013-08-29 03:39:00,
2013-08-28 22:44:00,79.5,70.9,29.07,East,90,5.8,5.8,75,0.00,CLR,,0.00,WeatherDisplay:10.37,2013-08-29 03:44:00,
2013-08-28 22:49:00,79.3,70.3,29.07,SE,135,2.3,2.3,74,0.00,CLR,,0.00,WeatherDisplay:10.37,2013-08-29 03:49:00,
2013-08-28 22:54:00,79.2,70.5,29.06,East,90,2.3,2.3,75,0.00,CLR,,0.00,WeatherDisplay:10.37,2013-08-29 03:54:00,
2013-08-28 22:59:00,78.8,70.2,29.06,SE,135,3.5,3.5,75,0.00,CLR,,0.00,WeatherDisplay:10.37,2013-08-29 03:59:00,
2013-08-28 23:01:00,78.6,70.0,29.06,East,90,3.5,3.5,75,0.00,CLR,,0.00,WeatherDisplay:10.37,2013-08-29 04:01:00,
2013-08-28 23:06:00,78.6,70.8,29.06,South,180,3.5,3.5,77,0.00,CLR,,0.00,WeatherDisplay:10.37,2013-08-29 04:06:00,
2013-08-28 23:11:00,78.4,70.6,29.06,East,90,3.5,3.5,77,0.00,CLR,,0.00,WeatherDisplay:10.37,2013-08-29 04:11:00,
2013-08-28 23:16:00,78.4,70.6,29.06,East,90,3.5,3.5,77,0.00,CLR,,0.00,WeatherDisplay:10.37,2013-08-29 04:16:00,
2013-08-28 23:21:00,78.4,70.2,29.07,South,180,3.5,0.0,76,0.00,CLR,,0.00,WeatherDisplay:10.37,2013-08-29 04:21:00,
2013-08-28 23:26:00,78.4,70.2,29.07,NE,45,3.8,3.8,76,0.00,CLR,,0.00,WeatherDisplay:10.37,2013-08-29 04:26:00,
2013-08-28 23:31:00,78.3,70.1,29.07,East,90,3.5,3.5,76,0.00,CLR,,0.00,WeatherDisplay:10.37,2013-08-29 04:31:00,
2013-08-28 23:36:00,78.1,69.9,29.07,SE,135,2.3,0.0,76,0.00,CLR,,0.00,WeatherDisplay:10.37,2013-08-29 04:36:00,
2013-08-28 23:41:00,78.1,69.9,29.07,East,90,0.0,0.7,76,0.00,CLR,,0.00,WeatherDisplay:10.37,2013-08-29 04:41:00,
2013-08-28 23:46:00,78.1,69.9,29.06,East,90,3.5,3.5,76,0.00,CLR,,0.00,WeatherDisplay:10.37,2013-08-29 04:46:00,
2013-08-28 23:51:00,78.1,70.3,29.07,South,180,3.5,3.5,77,0.00,CLR,,0.00,WeatherDisplay:10.37,2013-08-29 04:51:00,
2013-08-28 23:56:00,77.7,69.9,29.07,SE,135,3.5,3.5,77,0.00,CLR,,0.00,WeatherDisplay:10.37,2013-08-29 04:56:00,